sensor_id;sensor_type;location;lat;lon;timestamp;pressure;altitude;pressure_sealevel;temperature;humidity
73518;BME280;61766;60.318;25.044;2022-10-16T00:01:52;101023.65;;;12.59;53.71
73518;BME280;61766;60.318;25.044;2022-10-16T00:04:17;101023.57;;;12.59;54.20
73518;BME280;61766;60.318;25.044;2022-10-16T00:06:42;101024.21;;;12.01;54.80
73518;BME280;61766;60.318;25.044;2022-10-16T00:09:07;101018.84;;;12.58;53.91
73518;BME280;61766;60.318;25.044;2022-10-16T00:11:34;101018.57;;;12.53;53.46
73518;BME280;61766;60.318;25.044;2022-10-16T00:14:00;101008.63;;;12.40;54.22
73518;BME280;61766;60.318;25.044;2022-10-16T00:16:23;101007.88;;;12.52;54.35
73518;BME280;61766;60.318;25.044;2022-10-16T00:18:49;101005.40;;;12.19;55.13
73518;BME280;61766;60.318;25.044;2022-10-16T00:21:16;101001.67;;;11.04;57.57
73518;BME280;61766;60.318;25.044;2022-10-16T00:23:40;100999.46;;;12.19;55.18
73518;BME280;61766;60.318;25.044;2022-10-16T00:26:08;100999.20;;;12.30;54.43
73518;BME280;61766;60.318;25.044;2022-10-16T00:28:31;101002.23;;;12.14;55.20
73518;BME280;61766;60.318;25.044;2022-10-16T00:30:57;100992.45;;;12.45;54.74
73518;BME280;61766;60.318;25.044;2022-10-16T00:33:22;100994.35;;;12.48;53.40
73518;BME280;61766;60.318;25.044;2022-10-16T00:35:48;100989.40;;;12.64;53.06
73518;BME280;61766;60.318;25.044;2022-10-16T00:38:13;100992.33;;;12.39;54.05
73518;BME280;61766;60.318;25.044;2022-10-16T00:40:38;100993.95;;;12.16;55.06
73518;BME280;61766;60.318;25.044;2022-10-16T00:43:12;100994.97;;;12.99;53.37
73518;BME280;61766;60.318;25.044;2022-10-16T00:45:28;100992.88;;;11.83;54.58
73518;BME280;61766;60.318;25.044;2022-10-16T00:47:55;100989.96;;;11.98;55.51
73518;BME280;61766;60.318;25.044;2022-10-16T00:50:26;100992.79;;;12.32;54.97
73518;BME280;61766;60.318;25.044;2022-10-16T00:52:48;100983.95;;;12.60;54.29
73518;BME280;61766;60.318;25.044;2022-10-16T00:55:11;100982.31;;;12.60;53.26
73518;BME280;61766;60.318;25.044;2022-10-16T00:57:37;100982.16;;;12.30;53.88
73518;BME280;61766;60.318;25.044;2022-10-16T01:00:03;100981.48;;;12.54;53.21
73518;BME280;61766;60.318;25.044;2022-10-16T01:02:27;100978.83;;;12.22;53.84
73518;BME280;61766;60.318;25.044;2022-10-16T01:04:53;100980.15;;;12.77;52.79
73518;BME280;61766;60.318;25.044;2022-10-16T01:07:27;100976.95;;;12.91;52.53
73518;BME280;61766;60.318;25.044;2022-10-16T01:09:54;100978.22;;;12.95;52.21
73518;BME280;61766;60.318;25.044;2022-10-16T01:12:12;100975.62;;;13.35;51.50
73518;BME280;61766;60.318;25.044;2022-10-16T01:14:40;100981.27;;;12.50;52.82
73518;BME280;61766;60.318;25.044;2022-10-16T01:17:03;100976.21;;;11.85;55.02
73518;BME280;61766;60.318;25.044;2022-10-16T01:19:38;100977.12;;;12.29;53.95
73518;BME280;61766;60.318;25.044;2022-10-16T01:21:53;100977.34;;;12.08;55.12
73518;BME280;61766;60.318;25.044;2022-10-16T01:24:26;100977.82;;;11.84;55.45
73518;BME280;61766;60.318;25.044;2022-10-16T01:29:13;100981.64;;;11.86;55.48
73518;BME280;61766;60.318;25.044;2022-10-16T01:31:36;100973.55;;;12.14;55.64
73518;BME280;61766;60.318;25.044;2022-10-16T01:34:02;100964.39;;;11.40;57.10
73518;BME280;61766;60.318;25.044;2022-10-16T01:36:28;100964.98;;;12.15;55.18
73518;BME280;61766;60.318;25.044;2022-10-16T01:38:52;100961.69;;;11.90;55.73
73518;BME280;61766;60.318;25.044;2022-10-16T01:41:20;100960.12;;;12.06;54.93
73518;BME280;61766;60.318;25.044;2022-10-16T01:43:45;100963.03;;;12.65;53.98
73518;BME280;61766;60.318;25.044;2022-10-16T01:46:08;100955.70;;;12.01;55.17
73518;BME280;61766;60.318;25.044;2022-10-16T01:48:33;100955.70;;;12.12;55.27
73518;BME280;61766;60.318;25.044;2022-10-16T01:51:01;100949.58;;;12.79;53.52
73518;BME280;61766;60.318;25.044;2022-10-16T01:53:23;100951.53;;;12.53;53.92
73518;BME280;61766;60.318;25.044;2022-10-16T01:55:49;100951.40;;;11.78;55.54
73518;BME280;61766;60.318;25.044;2022-10-16T01:58:14;100950.30;;;11.94;55.35
73518;BME280;61766;60.318;25.044;2022-10-16T02:00:39;100947.25;;;12.34;55.10
73518;BME280;61766;60.318;25.044;2022-10-16T02:03:04;100941.32;;;12.45;54.05
73518;BME280;61766;60.318;25.044;2022-10-16T02:05:30;100947.74;;;13.22;52.32
73518;BME280;61766;60.318;25.044;2022-10-16T02:07:54;100946.96;;;12.86;52.81
73518;BME280;61766;60.318;25.044;2022-10-16T02:10:19;100951.72;;;13.08;52.44
73518;BME280;61766;60.318;25.044;2022-10-16T02:12:48;100950.93;;;11.73;56.57
73518;BME280;61766;60.318;25.044;2022-10-16T02:15:11;100943.42;;;12.44;54.97
73518;BME280;61766;60.318;25.044;2022-10-16T02:17:36;100942.53;;;11.82;55.82
73518;BME280;61766;60.318;25.044;2022-10-16T02:20:02;100941.09;;;12.36;54.64
73518;BME280;61766;60.318;25.044;2022-10-16T02:22:29;100939.44;;;11.97;56.01
73518;BME280;61766;60.318;25.044;2022-10-16T02:24:56;100942.44;;;12.04;55.90
73518;BME280;61766;60.318;25.044;2022-10-16T02:27:20;100942.96;;;12.23;55.44
73518;BME280;61766;60.318;25.044;2022-10-16T02:29:47;100942.86;;;12.04;55.53
73518;BME280;61766;60.318;25.044;2022-10-16T02:32:10;100942.36;;;12.07;54.79
73518;BME280;61766;60.318;25.044;2022-10-16T02:34:35;100929.56;;;12.77;53.99
73518;BME280;61766;60.318;25.044;2022-10-16T02:37:01;100929.88;;;11.73;56.06
73518;BME280;61766;60.318;25.044;2022-10-16T02:39:26;100919.95;;;12.26;55.12
73518;BME280;61766;60.318;25.044;2022-10-16T02:41:50;100904.91;;;11.98;56.20
73518;BME280;61766;60.318;25.044;2022-10-16T02:44:16;100904.14;;;12.56;54.50
73518;BME280;61766;60.318;25.044;2022-10-16T02:46:41;100904.81;;;12.82;53.28
73518;BME280;61766;60.318;25.044;2022-10-16T02:49:07;100901.17;;;12.40;54.04
73518;BME280;61766;60.318;25.044;2022-10-16T02:51:33;100907.58;;;12.91;52.66
73518;BME280;61766;60.318;25.044;2022-10-16T02:53:58;100916.06;;;11.99;54.94
73518;BME280;61766;60.318;25.044;2022-10-16T02:56:23;100912.92;;;12.71;53.40
73518;BME280;61766;60.318;25.044;2022-10-16T02:58:48;100920.41;;;12.37;54.97
73518;BME280;61766;60.318;25.044;2022-10-16T03:01:14;100903.81;;;12.49;54.67
73518;BME280;61766;60.318;25.044;2022-10-16T03:03:40;100901.68;;;12.91;52.76
73518;BME280;61766;60.318;25.044;2022-10-16T03:06:05;100907.39;;;12.80;53.30
73518;BME280;61766;60.318;25.044;2022-10-16T03:08:31;100904.19;;;12.83;53.62
73518;BME280;61766;60.318;25.044;2022-10-16T03:10:56;100906.44;;;12.07;54.83
73518;BME280;61766;60.318;25.044;2022-10-16T03:13:21;100902.89;;;12.22;54.16
73518;BME280;61766;60.318;25.044;2022-10-16T03:15:47;100896.89;;;12.84;53.23
73518;BME280;61766;60.318;25.044;2022-10-16T03:18:12;100894.56;;;13.11;52.68
73518;BME280;61766;60.318;25.044;2022-10-16T03:20:37;100893.92;;;12.87;52.61
73518;BME280;61766;60.318;25.044;2022-10-16T03:23:02;100893.65;;;12.55;52.67
73518;BME280;61766;60.318;25.044;2022-10-16T03:25:28;100891.69;;;12.46;53.18
73518;BME280;61766;60.318;25.044;2022-10-16T03:27:53;100887.87;;;12.36;53.49
73518;BME280;61766;60.318;25.044;2022-10-16T03:30:19;100888.16;;;12.35;53.66
73518;BME280;61766;60.318;25.044;2022-10-16T03:32:44;100886.20;;;12.22;54.14
73518;BME280;61766;60.318;25.044;2022-10-16T03:35:09;100884.10;;;12.37;53.97
73518;BME280;61766;60.318;25.044;2022-10-16T03:37:35;100885.62;;;11.54;55.53
73518;BME280;61766;60.318;25.044;2022-10-16T03:40:00;100884.99;;;12.08;54.63
73518;BME280;61766;60.318;25.044;2022-10-16T03:42:25;100891.02;;;11.50;55.46
73518;BME280;61766;60.318;25.044;2022-10-16T03:44:51;100878.72;;;12.26;53.85
73518;BME280;61766;60.318;25.044;2022-10-16T03:47:16;100882.84;;;11.81;55.63
73518;BME280;61766;60.318;25.044;2022-10-16T03:49:41;100880.74;;;12.01;55.45
73518;BME280;61766;60.318;25.044;2022-10-16T03:52:07;100877.41;;;11.43;56.13
73518;BME280;61766;60.318;25.044;2022-10-16T03:54:32;100874.75;;;11.47;56.81
73518;BME280;61766;60.318;25.044;2022-10-16T03:56:58;100873.82;;;11.73;56.76
73518;BME280;61766;60.318;25.044;2022-10-16T03:59:23;100869.86;;;11.64;56.82
73518;BME280;61766;60.318;25.044;2022-10-16T04:01:48;100869.91;;;12.25;55.72
73518;BME280;61766;60.318;25.044;2022-10-16T04:04:14;100869.45;;;11.89;55.84
73518;BME280;61766;60.318;25.044;2022-10-16T04:06:39;100864.85;;;11.36;56.88
73518;BME280;61766;60.318;25.044;2022-10-16T04:09:05;100863.98;;;11.04;57.45
73518;BME280;61766;60.318;25.044;2022-10-16T04:11:31;100862.48;;;11.59;57.22
73518;BME280;61766;60.318;25.044;2022-10-16T04:13:56;100861.03;;;11.79;56.74
73518;BME280;61766;60.318;25.044;2022-10-16T04:16:21;100857.76;;;11.40;57.76
73518;BME280;61766;60.318;25.044;2022-10-16T04:18:47;100856.03;;;11.38;58.64
73518;BME280;61766;60.318;25.044;2022-10-16T04:21:12;100858.35;;;11.64;58.14
73518;BME280;61766;60.318;25.044;2022-10-16T04:23:38;100862.83;;;11.23;58.64
73518;BME280;61766;60.318;25.044;2022-10-16T04:26:04;100856.13;;;11.83;57.91
73518;BME280;61766;60.318;25.044;2022-10-16T04:28:30;100849.44;;;10.80;59.51
73518;BME280;61766;60.318;25.044;2022-10-16T04:30:55;100845.62;;;11.65;58.34
73518;BME280;61766;60.318;25.044;2022-10-16T04:33:20;100843.46;;;11.83;57.69
73518;BME280;61766;60.318;25.044;2022-10-16T04:35:46;100840.62;;;11.97;57.65
73518;BME280;61766;60.318;25.044;2022-10-16T04:38:11;100837.95;;;11.73;57.13
73518;BME280;61766;60.318;25.044;2022-10-16T04:40:37;100837.61;;;11.91;56.41
73518;BME280;61766;60.318;25.044;2022-10-16T04:43:02;100835.23;;;11.28;58.87
73518;BME280;61766;60.318;25.044;2022-10-16T04:45:27;100837.08;;;11.45;57.47
73518;BME280;61766;60.318;25.044;2022-10-16T04:47:52;100833.59;;;10.90;59.88
73518;BME280;61766;60.318;25.044;2022-10-16T04:50:18;100825.96;;;11.76;58.10
73518;BME280;61766;60.318;25.044;2022-10-16T04:52:43;100827.13;;;11.75;58.11
73518;BME280;61766;60.318;25.044;2022-10-16T04:55:09;100824.58;;;11.82;57.46
73518;BME280;61766;60.318;25.044;2022-10-16T04:57:34;100827.98;;;12.10;56.83
73518;BME280;61766;60.318;25.044;2022-10-16T04:59:59;100839.83;;;12.02;56.99
73518;BME280;61766;60.318;25.044;2022-10-16T05:02:25;100825.31;;;11.54;58.35
73518;BME280;61766;60.318;25.044;2022-10-16T05:04:51;100820.84;;;11.21;58.93
73518;BME280;61766;60.318;25.044;2022-10-16T05:07:16;100812.67;;;11.62;58.62
73518;BME280;61766;60.318;25.044;2022-10-16T05:09:41;100808.92;;;11.04;60.14
73518;BME280;61766;60.318;25.044;2022-10-16T05:12:06;100810.93;;;11.61;58.40
73518;BME280;61766;60.318;25.044;2022-10-16T05:14:32;100810.66;;;11.83;58.31
73518;BME280;61766;60.318;25.044;2022-10-16T05:16:59;100813.26;;;12.10;57.11
73518;BME280;61766;60.318;25.044;2022-10-16T05:19:23;100810.54;;;11.23;59.07
73518;BME280;61766;60.318;25.044;2022-10-16T05:21:48;100814.37;;;11.30;59.17
73518;BME280;61766;60.318;25.044;2022-10-16T05:24:14;100807.49;;;11.75;58.46
73518;BME280;61766;60.318;25.044;2022-10-16T05:26:40;100812.63;;;11.00;59.45
73518;BME280;61766;60.318;25.044;2022-10-16T05:29:06;100807.85;;;11.47;58.53
73518;BME280;61766;60.318;25.044;2022-10-16T05:31:31;100804.98;;;11.55;58.51
73518;BME280;61766;60.318;25.044;2022-10-16T05:33:58;100798.54;;;11.65;58.29
73518;BME280;61766;60.318;25.044;2022-10-16T05:36:21;100793.35;;;11.29;59.95
73518;BME280;61766;60.318;25.044;2022-10-16T05:38:50;100787.47;;;11.73;58.63
73518;BME280;61766;60.318;25.044;2022-10-16T05:41:12;100791.08;;;11.15;59.52
73518;BME280;61766;60.318;25.044;2022-10-16T05:43:37;100795.41;;;11.28;59.80
73518;BME280;61766;60.318;25.044;2022-10-16T05:46:05;100789.72;;;10.62;61.88
73518;BME280;61766;60.318;25.044;2022-10-16T05:48:29;100792.43;;;10.46;62.48
73518;BME280;61766;60.318;25.044;2022-10-16T05:50:58;100796.14;;;11.00;61.20
73518;BME280;61766;60.318;25.044;2022-10-16T05:53:20;100804.15;;;11.13;60.91
73518;BME280;61766;60.318;25.044;2022-10-16T05:55:51;100797.14;;;10.40;62.41
73518;BME280;61766;60.318;25.044;2022-10-16T05:58:10;100798.80;;;10.17;63.40
73518;BME280;61766;60.318;25.044;2022-10-16T06:00:35;100800.21;;;10.55;63.77
73518;BME280;61766;60.318;25.044;2022-10-16T06:03:01;100805.09;;;10.36;64.26
73518;BME280;61766;60.318;25.044;2022-10-16T06:05:26;100797.36;;;10.91;62.19
73518;BME280;61766;60.318;25.044;2022-10-16T06:07:51;100802.66;;;11.00;61.83
73518;BME280;61766;60.318;25.044;2022-10-16T06:10:16;100801.92;;;10.70;62.54
73518;BME280;61766;60.318;25.044;2022-10-16T06:12:42;100808.05;;;10.76;62.60
73518;BME280;61766;60.318;25.044;2022-10-16T06:15:08;100804.90;;;10.17;65.40
73518;BME280;61766;60.318;25.044;2022-10-16T06:17:33;100799.45;;;10.52;64.57
73518;BME280;61766;60.318;25.044;2022-10-16T06:19:59;100799.35;;;11.27;61.76
73518;BME280;61766;60.318;25.044;2022-10-16T06:22:24;100805.81;;;11.22;61.27
73518;BME280;61766;60.318;25.044;2022-10-16T06:24:50;100806.37;;;11.27;61.73
73518;BME280;61766;60.318;25.044;2022-10-16T06:27:15;100807.68;;;11.12;61.88
73518;BME280;61766;60.318;25.044;2022-10-16T06:29:41;100808.12;;;10.61;64.62
73518;BME280;61766;60.318;25.044;2022-10-16T06:32:06;100802.88;;;10.45;65.32
73518;BME280;61766;60.318;25.044;2022-10-16T06:34:32;100803.93;;;10.09;66.17
73518;BME280;61766;60.318;25.044;2022-10-16T06:36:58;100807.41;;;10.34;65.72
73518;BME280;61766;60.318;25.044;2022-10-16T06:39:23;100808.11;;;10.33;64.54
73518;BME280;61766;60.318;25.044;2022-10-16T06:41:48;100814.23;;;10.75;63.75
73518;BME280;61766;60.318;25.044;2022-10-16T06:44:13;100815.63;;;10.29;64.84
73518;BME280;61766;60.318;25.044;2022-10-16T06:46:39;100819.17;;;10.91;63.60
73518;BME280;61766;60.318;25.044;2022-10-16T06:49:04;100821.23;;;11.40;62.37
73518;BME280;61766;60.318;25.044;2022-10-16T06:51:29;100819.98;;;11.39;62.31
73518;BME280;61766;60.318;25.044;2022-10-16T06:53:56;100820.52;;;11.05;63.17
73518;BME280;61766;60.318;25.044;2022-10-16T06:56:22;100825.93;;;10.76;64.16
73518;BME280;61766;60.318;25.044;2022-10-16T06:58:46;100823.41;;;11.68;61.45
73518;BME280;61766;60.318;25.044;2022-10-16T07:01:13;100817.48;;;11.61;61.37
73518;BME280;61766;60.318;25.044;2022-10-16T07:03:37;100814.74;;;11.28;62.03
73518;BME280;61766;60.318;25.044;2022-10-16T07:06:03;100821.88;;;11.26;62.68
73518;BME280;61766;60.318;25.044;2022-10-16T07:08:28;100818.87;;;11.01;64.17
73518;BME280;61766;60.318;25.044;2022-10-16T07:10:58;100813.35;;;11.20;63.21
73518;BME280;61766;60.318;25.044;2022-10-16T07:13:18;100817.22;;;11.65;62.08
73518;BME280;61766;60.318;25.044;2022-10-16T07:15:43;100817.18;;;11.56;62.34
73518;BME280;61766;60.318;25.044;2022-10-16T07:18:09;100819.88;;;11.69;62.69
73518;BME280;61766;60.318;25.044;2022-10-16T07:20:34;100819.06;;;11.08;63.65
73518;BME280;61766;60.318;25.044;2022-10-16T07:22:59;100818.04;;;11.53;62.67
73518;BME280;61766;60.318;25.044;2022-10-16T07:25:25;100820.60;;;12.29;61.58
73518;BME280;61766;60.318;25.044;2022-10-16T07:27:50;100817.97;;;11.30;62.99
73518;BME280;61766;60.318;25.044;2022-10-16T07:30:16;100817.55;;;11.35;63.70
73518;BME280;61766;60.318;25.044;2022-10-16T07:32:41;100809.72;;;12.04;61.70
73518;BME280;61766;60.318;25.044;2022-10-16T07:35:07;100810.30;;;11.70;61.66
73518;BME280;61766;60.318;25.044;2022-10-16T07:37:32;100815.20;;;11.24;62.55
73518;BME280;61766;60.318;25.044;2022-10-16T07:39:58;100818.67;;;11.56;62.07
73518;BME280;61766;60.318;25.044;2022-10-16T07:42:23;100814.36;;;12.48;60.61
73518;BME280;61766;60.318;25.044;2022-10-16T07:44:49;100820.44;;;11.61;61.78
73518;BME280;61766;60.318;25.044;2022-10-16T07:47:14;100812.92;;;11.91;61.23
73518;BME280;61766;60.318;25.044;2022-10-16T07:49:39;100817.35;;;12.25;60.44
73518;BME280;61766;60.318;25.044;2022-10-16T07:52:04;100821.61;;;10.94;62.88
73518;BME280;61766;60.318;25.044;2022-10-16T07:54:30;100819.16;;;12.17;60.76
73518;BME280;61766;60.318;25.044;2022-10-16T07:56:55;100817.35;;;11.80;61.62
73518;BME280;61766;60.318;25.044;2022-10-16T07:59:21;100818.57;;;11.76;62.57
73518;BME280;61766;60.318;25.044;2022-10-16T08:01:46;100828.09;;;11.30;64.15
73518;BME280;61766;60.318;25.044;2022-10-16T08:04:12;100821.91;;;11.40;63.20
73518;BME280;61766;60.318;25.044;2022-10-16T08:06:39;100816.34;;;11.92;62.06
73518;BME280;61766;60.318;25.044;2022-10-16T08:09:03;100812.19;;;11.55;62.60
73518;BME280;61766;60.318;25.044;2022-10-16T08:11:29;100818.23;;;11.54;64.06
73518;BME280;61766;60.318;25.044;2022-10-16T08:13:54;100824.53;;;11.79;62.76
73518;BME280;61766;60.318;25.044;2022-10-16T08:16:20;100816.31;;;12.29;62.29
73518;BME280;61766;60.318;25.044;2022-10-16T08:18:46;100823.63;;;11.61;63.91
73518;BME280;61766;60.318;25.044;2022-10-16T08:21:14;100823.21;;;11.40;64.29
73518;BME280;61766;60.318;25.044;2022-10-16T08:23:36;100825.14;;;11.85;64.34
73518;BME280;61766;60.318;25.044;2022-10-16T08:26:04;100822.32;;;11.71;63.96
73518;BME280;61766;60.318;25.044;2022-10-16T08:28:27;100829.97;;;11.92;64.14
73518;BME280;61766;60.318;25.044;2022-10-16T08:30:53;100827.54;;;12.25;63.53
73518;BME280;61766;60.318;25.044;2022-10-16T08:33:18;100825.77;;;11.03;65.30
73518;BME280;61766;60.318;25.044;2022-10-16T08:35:52;100823.45;;;11.78;63.75
73518;BME280;61766;60.318;25.044;2022-10-16T08:38:09;100825.26;;;12.01;62.88
73518;BME280;61766;60.318;25.044;2022-10-16T08:40:36;100827.52;;;12.04;62.50
73518;BME280;61766;60.318;25.044;2022-10-16T08:43:15;100823.66;;;12.83;60.68
73518;BME280;61766;60.318;25.044;2022-10-16T08:45:34;100821.73;;;12.72;60.85
73518;BME280;61766;60.318;25.044;2022-10-16T08:48:00;100827.90;;;12.12;62.54
73518;BME280;61766;60.318;25.044;2022-10-16T08:50:23;100826.52;;;12.46;62.48
73518;BME280;61766;60.318;25.044;2022-10-16T08:52:44;100823.54;;;12.76;60.88
73518;BME280;61766;60.318;25.044;2022-10-16T08:55:08;100826.46;;;12.74;60.48
73518;BME280;61766;60.318;25.044;2022-10-16T08:57:32;100825.64;;;12.99;60.85
73518;BME280;61766;60.318;25.044;2022-10-16T09:00:00;100828.21;;;12.57;60.94
73518;BME280;61766;60.318;25.044;2022-10-16T09:02:27;100829.67;;;12.12;63.52
73518;BME280;61766;60.318;25.044;2022-10-16T09:04:57;100834.66;;;11.48;64.54
73518;BME280;61766;60.318;25.044;2022-10-16T09:07:16;100834.32;;;12.28;63.79
73518;BME280;61766;60.318;25.044;2022-10-16T09:09:50;100832.54;;;11.44;65.93
73518;BME280;61766;60.318;25.044;2022-10-16T09:12:09;100833.54;;;11.27;66.23
73518;BME280;61766;60.318;25.044;2022-10-16T09:14:40;100838.49;;;11.09;67.29
73518;BME280;61766;60.318;25.044;2022-10-16T09:16:58;100837.39;;;11.46;66.03
73518;BME280;61766;60.318;25.044;2022-10-16T09:19:26;100845.90;;;11.43;66.33
73518;BME280;61766;60.318;25.044;2022-10-16T09:21:46;100836.85;;;11.51;67.69
73518;BME280;61766;60.318;25.044;2022-10-16T09:24:13;100838.87;;;11.90;65.48
73518;BME280;61766;60.318;25.044;2022-10-16T09:26:37;100847.03;;;11.00;67.66
73518;BME280;61766;60.318;25.044;2022-10-16T09:29:03;100840.50;;;11.67;66.20
73518;BME280;61766;60.318;25.044;2022-10-16T09:31:28;100842.24;;;11.46;66.38
73518;BME280;61766;60.318;25.044;2022-10-16T09:33:55;100843.06;;;11.65;66.11
73518;BME280;61766;60.318;25.044;2022-10-16T09:36:19;100844.41;;;11.06;67.28
73518;BME280;61766;60.318;25.044;2022-10-16T09:38:44;100841.24;;;10.53;68.95
73518;BME280;61766;60.318;25.044;2022-10-16T09:41:16;100838.86;;;11.45;66.77
73518;BME280;61766;60.318;25.044;2022-10-16T09:43:38;100842.67;;;11.13;67.23
73518;BME280;61766;60.318;25.044;2022-10-16T09:46:02;100845.51;;;11.14;67.50
73518;BME280;61766;60.318;25.044;2022-10-16T09:48:30;100843.48;;;11.06;68.48
73518;BME280;61766;60.318;25.044;2022-10-16T09:50:58;100848.21;;;11.13;68.28
73518;BME280;61766;60.318;25.044;2022-10-16T09:53:16;100836.57;;;11.39;68.03
73518;BME280;61766;60.318;25.044;2022-10-16T09:55:49;100838.92;;;10.99;68.32
73518;BME280;61766;60.318;25.044;2022-10-16T09:58:13;100834.28;;;11.23;68.05
73518;BME280;61766;60.318;25.044;2022-10-16T10:00:32;100829.82;;;10.98;67.36
73518;BME280;61766;60.318;25.044;2022-10-16T10:02:58;100826.07;;;11.37;66.72
73518;BME280;61766;60.318;25.044;2022-10-16T10:05:25;100831.08;;;11.27;67.12
73518;BME280;61766;60.318;25.044;2022-10-16T10:07:54;100826.64;;;11.90;65.98
73518;BME280;61766;60.318;25.044;2022-10-16T10:10:20;100826.90;;;11.88;64.96
73518;BME280;61766;60.318;25.044;2022-10-16T10:12:39;100829.78;;;12.06;64.25
73518;BME280;61766;60.318;25.044;2022-10-16T10:15:07;100826.69;;;11.73;64.49
73518;BME280;61766;60.318;25.044;2022-10-16T10:17:30;100824.14;;;12.10;63.04
73518;BME280;61766;60.318;25.044;2022-10-16T10:19:58;100826.16;;;11.56;65.49
73518;BME280;61766;60.318;25.044;2022-10-16T10:22:25;100818.32;;;12.09;63.20
73518;BME280;61766;60.318;25.044;2022-10-16T10:24:55;100815.98;;;11.78;64.57
73518;BME280;61766;60.318;25.044;2022-10-16T10:27:16;100817.23;;;11.89;65.18
73518;BME280;61766;60.318;25.044;2022-10-16T10:29:47;100816.62;;;12.08;64.46
73518;BME280;61766;60.318;25.044;2022-10-16T10:32:11;100815.85;;;11.91;64.35
73518;BME280;61766;60.318;25.044;2022-10-16T10:34:40;100810.22;;;12.13;62.95
73518;BME280;61766;60.318;25.044;2022-10-16T10:37:01;100812.03;;;11.75;64.62
73518;BME280;61766;60.318;25.044;2022-10-16T10:39:23;100805.82;;;11.99;63.98
73518;BME280;61766;60.318;25.044;2022-10-16T10:42:00;100801.65;;;11.85;63.70
73518;BME280;61766;60.318;25.044;2022-10-16T10:44:15;100809.41;;;12.24;63.78
73518;BME280;61766;60.318;25.044;2022-10-16T10:46:41;100803.48;;;12.16;63.77
73518;BME280;61766;60.318;25.044;2022-10-16T10:49:13;100801.34;;;12.17;63.92
73518;BME280;61766;60.318;25.044;2022-10-16T10:51:31;100791.45;;;11.74;63.91
73518;BME280;61766;60.318;25.044;2022-10-16T10:53:57;100788.54;;;11.85;64.29
73518;BME280;61766;60.318;25.044;2022-10-16T10:56:40;100789.83;;;12.86;61.59
73518;BME280;61766;60.318;25.044;2022-10-16T10:58:55;100786.61;;;13.00;61.16
73518;BME280;61766;60.318;25.044;2022-10-16T11:01:10;100784.56;;;12.46;61.16
73518;BME280;61766;60.318;25.044;2022-10-16T11:03:54;100780.67;;;12.80;60.22
73518;BME280;61766;60.318;25.044;2022-10-16T11:06:01;100777.10;;;13.10;59.65
73518;BME280;61766;60.318;25.044;2022-10-16T11:08:27;100776.67;;;13.31;58.93
73518;BME280;61766;60.318;25.044;2022-10-16T11:10:53;100776.92;;;13.67;58.06
73518;BME280;61766;60.318;25.044;2022-10-16T11:13:21;100775.56;;;13.99;57.17
73518;BME280;61766;60.318;25.044;2022-10-16T11:15:41;100772.47;;;13.80;57.17
73518;BME280;61766;60.318;25.044;2022-10-16T11:18:08;100770.06;;;13.43;58.51
73518;BME280;61766;60.318;25.044;2022-10-16T11:20:33;100770.02;;;13.66;57.89
73518;BME280;61766;60.318;25.044;2022-10-16T11:22:59;100760.08;;;13.02;59.28
73518;BME280;61766;60.318;25.044;2022-10-16T11:25:23;100761.79;;;13.39;58.06
73518;BME280;61766;60.318;25.044;2022-10-16T11:27:50;100762.36;;;12.40;60.43
73518;BME280;61766;60.318;25.044;2022-10-16T11:30:18;100767.11;;;13.26;58.80
73518;BME280;61766;60.318;25.044;2022-10-16T11:32:47;100761.41;;;12.93;59.46
73518;BME280;61766;60.318;25.044;2022-10-16T11:35:11;100764.27;;;13.27;58.68
73518;BME280;61766;60.318;25.044;2022-10-16T11:37:32;100762.65;;;13.47;58.19
73518;BME280;61766;60.318;25.044;2022-10-16T11:40:00;100764.67;;;13.25;57.95
73518;BME280;61766;60.318;25.044;2022-10-16T11:42:21;100755.45;;;13.76;56.91
73518;BME280;61766;60.318;25.044;2022-10-16T11:44:51;100756.35;;;13.22;58.56
73518;BME280;61766;60.318;25.044;2022-10-16T11:47:22;100752.77;;;11.88;61.67
73518;BME280;61766;60.318;25.044;2022-10-16T11:49:37;100754.04;;;13.50;58.11
73518;BME280;61766;60.318;25.044;2022-10-16T11:52:07;100737.07;;;13.07;60.15
73518;BME280;61766;60.318;25.044;2022-10-16T11:54:32;100728.36;;;13.53;58.42
73518;BME280;61766;60.318;25.044;2022-10-16T11:56:57;100731.01;;;13.67;57.38
73518;BME280;61766;60.318;25.044;2022-10-16T11:59:25;100731.54;;;13.20;58.57
73518;BME280;61766;60.318;25.044;2022-10-16T12:01:44;100723.78;;;13.72;57.33
73518;BME280;61766;60.318;25.044;2022-10-16T12:04:19;100721.59;;;13.50;57.28
73518;BME280;61766;60.318;25.044;2022-10-16T12:06:37;100729.86;;;12.73;59.57
73518;BME280;61766;60.318;25.044;2022-10-16T12:08:59;100728.07;;;13.14;59.21
73518;BME280;61766;60.318;25.044;2022-10-16T12:11:32;100727.99;;;13.20;59.15
73518;BME280;61766;60.318;25.044;2022-10-16T12:13:50;100717.11;;;12.97;59.64
73518;BME280;61766;60.318;25.044;2022-10-16T12:16:22;100725.26;;;13.19;59.06
73518;BME280;61766;60.318;25.044;2022-10-16T12:18:43;100719.13;;;12.72;59.59
73518;BME280;61766;60.318;25.044;2022-10-16T12:21:07;100714.43;;;13.13;59.44
73518;BME280;61766;60.318;25.044;2022-10-16T12:23:33;100714.44;;;13.47;58.39
73518;BME280;61766;60.318;25.044;2022-10-16T12:25:59;100711.73;;;12.31;57.96
73518;BME280;61766;60.318;25.044;2022-10-16T12:28:28;100707.21;;;13.84;56.06
73518;BME280;61766;60.318;25.044;2022-10-16T12:30:53;100705.37;;;13.30;58.21
73518;BME280;61766;60.318;25.044;2022-10-16T12:33:21;100701.88;;;13.90;56.74